Time;durP1;ratioP1;P1;durP2;ratioP2;P2;SDS_P1;SDS_P2;PMS_P1;PMS_P2;Temp;Humidity;BMP_temperature;BMP_pressure;BME280_temperature;BME280_humidity;BME280_pressure;Samples;Min_cycle;Max_cycle;Signal;HPM_P1;HPM_P2
2021/12/21 00:00:40;;;;;;;;;;;6.30;99.90;;;;;;5094031;28;19920;-74
2021/12/21 00:03:06;;;;;;;;;;;6.40;99.90;;;;;;5108142;28;19915;-75
2021/12/21 00:05:32;;;;;;;;;;;6.40;99.90;;;;;;5095402;28;19954;-73
2021/12/21 00:07:58;;;;;;;;;;;6.40;99.90;;;;;;5095263;28;19960;-75
2021/12/21 00:10:26;;;;;;;;;;;6.30;99.90;;;;;;5077038;28;19935;-74
2021/12/21 00:15:33;;;;;;;;;;;6.30;99.90;;;;;;5102400;28;20373;-73
2021/12/21 00:18:08;;;;;;;;;;;6.30;99.90;;;;;;5090054;28;19912;-73
2021/12/21 00:20:48;;;;;;;;;;;6.30;99.90;;;;;;5094890;28;19912;-75
2021/12/21 00:23:32;;;;;;;;;;;6.30;99.90;;;;;;5104407;28;20173;-73
2021/12/21 00:25:59;;;;;;;;;;;6.30;99.90;;;;;;5076696;28;19958;-73
2021/12/21 00:28:25;;;;;;;;;;;6.30;99.90;;;;;;5094396;28;19915;-73
2021/12/21 00:30:51;;;;;;;;;;;6.30;99.90;;;;;;5079704;28;19912;-72
2021/12/21 00:33:17;;;;;;;;;;;6.20;99.90;;;;;;5105102;28;19966;-73
2021/12/21 00:35:43;;;;;;;;;;;6.30;99.90;;;;;;5093746;28;19908;-73
2021/12/21 00:38:08;;;;;;;;;;;6.30;99.90;;;;;;5082774;28;19915;-74
2021/12/21 00:40:34;;;;;;;;;;;6.30;99.90;;;;;;5094834;28;20042;-73
2021/12/21 00:43:00;;;;;;;;;;;6.30;99.90;;;;;;5105929;28;20345;-74
2021/12/21 00:45:25;;;;;;;;;;;6.30;99.90;;;;;;5090921;28;19951;-73
2021/12/21 00:47:51;;;;;;;;;;;6.30;99.90;;;;;;5100578;28;19908;-74
2021/12/21 00:50:17;;;;;;;;;;;6.30;99.90;;;;;;5096881;28;19970;-73
2021/12/21 00:52:47;;;;;;;;;;;6.30;99.90;;;;;;5099915;28;19908;-74
2021/12/21 00:55:13;;;;;;;;;;;6.30;99.90;;;;;;5086407;28;19907;-74
2021/12/21 00:57:38;;;;;;;;;;;6.20;99.90;;;;;;5096827;28;20254;-74
2021/12/21 01:00:05;;;;;;;;;;;6.30;99.90;;;;;;5102938;28;19918;-72
2021/12/21 01:02:31;;;;;;;;;;;6.30;99.90;;;;;;5096265;28;19908;-74
2021/12/21 01:04:58;;;;;;;;;;;6.30;99.90;;;;;;5092421;28;20344;-74
2021/12/21 01:07:31;;;;;;;;;;;6.30;99.90;;;;;;5101465;28;19912;-73
2021/12/21 01:15:32;;;;;;;;;;;6.40;99.90;;;;;;5089804;28;20331;-72
2021/12/21 01:18:01;;;;;;;;;;;6.40;99.90;;;;;;5084099;28;20369;-73
2021/12/21 01:25:40;;;;;;;;;;;6.30;99.90;;;;;;5091770;28;19911;-75
2021/12/21 01:28:16;;;;;;;;;;;6.30;99.90;;;;;;5075886;28;19942;-74
2021/12/21 01:33:38;;;;;;;;;;;6.30;99.90;;;;;;5094155;28;19915;-73
2021/12/21 01:36:13;;;;;;;;;;;6.30;99.90;;;;;;5095491;28;19907;-71
2021/12/21 01:38:55;;;;;;;;;;;6.30;99.90;;;;;;5093299;28;19955;-74
2021/12/21 01:42:00;;;;;;;;;;;6.30;99.90;;;;;;5092697;28;19915;-73
2021/12/21 01:49:36;;;;;;;;;;;6.20;99.90;;;;;;5100915;28;19914;-73
2021/12/21 01:52:03;;;;;;;;;;;6.20;99.90;;;;;;5087525;28;19908;-73
2021/12/21 01:54:28;;;;;;;;;;;6.10;99.90;;;;;;5099527;28;19915;-72
2021/12/21 01:56:54;;;;;;;;;;;6.10;99.90;;;;;;5091651;28;19965;-73
2021/12/21 01:59:20;;;;;;;;;;;6.10;99.90;;;;;;5100884;28;19979;-73
2021/12/21 02:01:45;;;;;;;;;;;6.10;99.90;;;;;;5092535;28;19936;-71
2021/12/21 02:04:15;;;;;;;;;;;6.00;99.90;;;;;;5100540;28;19908;-74
2021/12/21 02:06:41;;;;;;;;;;;6.00;99.90;;;;;;5101611;28;20022;-76
2021/12/21 02:09:07;;;;;;;;;;;6.00;99.90;;;;;;5090771;28;20038;-74
2021/12/21 02:11:32;;;;;;;;;;;6.00;99.90;;;;;;5095501;28;19908;-75
2021/12/21 02:13:59;;;;;;;;;;;5.90;99.90;;;;;;5086508;28;20002;-72
2021/12/21 02:16:32;;;;;;;;;;;5.90;99.90;;;;;;5092784;28;20013;-75
2021/12/21 02:19:18;;;;;;;;;;;5.80;99.90;;;;;;5074201;28;19930;-72
2021/12/21 02:21:51;;;;;;;;;;;5.80;99.90;;;;;;5115989;27;19923;-73
2021/12/21 02:24:21;;;;;;;;;;;5.80;99.90;;;;;;5091582;28;19998;-74
2021/12/21 02:26:52;;;;;;;;;;;5.80;99.90;;;;;;5089305;28;19912;-74
2021/12/21 02:29:25;;;;;;;;;;;5.90;99.90;;;;;;5091927;28;19912;-74
2021/12/21 02:31:52;;;;;;;;;;;5.90;99.90;;;;;;5090736;28;19959;-73
2021/12/21 02:34:18;;;;;;;;;;;5.80;99.90;;;;;;5093280;28;20250;-74
2021/12/21 02:36:45;;;;;;;;;;;5.90;99.90;;;;;;5086117;28;19908;-73
2021/12/21 02:39:11;;;;;;;;;;;5.80;99.90;;;;;;5089504;28;19930;-73
2021/12/21 02:41:38;;;;;;;;;;;5.80;99.90;;;;;;5099469;27;19907;-73
2021/12/21 02:44:03;;;;;;;;;;;5.80;99.90;;;;;;5092048;28;19950;-73
2021/12/21 02:46:29;;;;;;;;;;;5.90;99.90;;;;;;5086292;28;19955;-73
2021/12/21 02:48:55;;;;;;;;;;;5.90;99.90;;;;;;5098955;28;19911;-74
2021/12/21 02:51:20;;;;;;;;;;;5.90;99.90;;;;;;5092571;28;19934;-74
2021/12/21 02:53:46;;;;;;;;;;;5.90;99.90;;;;;;5099781;28;19931;-72
2021/12/21 02:56:12;;;;;;;;;;;5.90;99.90;;;;;;5094588;28;19928;-74
2021/12/21 02:58:38;;;;;;;;;;;5.90;99.90;;;;;;5097750;28;19999;-75
2021/12/21 03:01:05;;;;;;;;;;;5.90;99.90;;;;;;5099397;28;20336;-74
2021/12/21 03:03:31;;;;;;;;;;;5.90;99.90;;;;;;5099391;28;19907;-74
2021/12/21 03:05:58;;;;;;;;;;;5.90;99.90;;;;;;5095942;28;21192;-73
2021/12/21 03:08:35;;;;;;;;;;;5.90;99.90;;;;;;5094416;28;19937;-73
2021/12/21 03:11:35;;;;;;;;;;;5.90;99.90;;;;;;5092649;28;19916;-74
2021/12/21 03:14:04;;;;;;;;;;;5.90;99.90;;;;;;5097575;28;19910;-74
2021/12/21 03:16:34;;;;;;;;;;;5.90;99.90;;;;;;5087797;28;20435;-74
2021/12/21 03:18:59;;;;;;;;;;;5.90;99.90;;;;;;5091243;28;19983;-72
2021/12/21 03:21:26;;;;;;;;;;;5.90;99.90;;;;;;5095443;28;19908;-75
2021/12/21 03:23:51;;;;;;;;;;;5.90;99.90;;;;;;5093874;28;19985;-71
2021/12/21 03:26:17;;;;;;;;;;;6.00;99.90;;;;;;5093739;28;20542;-75
2021/12/21 03:28:43;;;;;;;;;;;6.00;99.90;;;;;;5099633;28;19908;-75
2021/12/21 03:31:10;;;;;;;;;;;6.00;99.90;;;;;;5090759;28;19912;-75
2021/12/21 03:33:36;;;;;;;;;;;6.00;99.90;;;;;;5099464;28;19915;-75
2021/12/21 03:36:02;;;;;;;;;;;6.00;99.90;;;;;;5088711;28;19920;-74
2021/12/21 03:38:28;;;;;;;;;;;6.00;99.90;;;;;;5101481;28;20427;-73
2021/12/21 03:41:01;;;;;;;;;;;6.00;99.90;;;;;;5092293;28;20375;-73
2021/12/21 03:43:29;;;;;;;;;;;6.00;99.90;;;;;;5105416;28;19919;-75
2021/12/21 03:46:03;;;;;;;;;;;6.00;99.90;;;;;;5093156;28;19942;-72
2021/12/21 03:48:28;;;;;;;;;;;6.10;99.90;;;;;;5092508;28;19912;-72
2021/12/21 03:50:54;;;;;;;;;;;6.10;99.90;;;;;;5102228;28;19957;-73
2021/12/21 03:53:20;;;;;;;;;;;6.00;99.90;;;;;;5101872;28;19954;-75
2021/12/21 03:55:45;;;;;;;;;;;6.10;99.90;;;;;;5092379;28;20002;-72
2021/12/21 03:58:11;;;;;;;;;;;6.10;99.90;;;;;;5100538;28;19915;-73
2021/12/21 04:00:36;;;;;;;;;;;6.10;99.90;;;;;;5096073;28;19913;-73
2021/12/21 04:03:02;;;;;;;;;;;6.10;99.90;;;;;;5114428;27;19969;-74
2021/12/21 04:05:27;;;;;;;;;;;6.10;99.90;;;;;;5092684;28;19977;-73
2021/12/21 04:07:53;;;;;;;;;;;6.10;99.90;;;;;;5100976;28;20025;-73
2021/12/21 04:10:19;;;;;;;;;;;6.10;99.90;;;;;;5103643;28;19922;-74
2021/12/21 04:12:44;;;;;;;;;;;6.20;99.90;;;;;;5089941;28;19999;-73
2021/12/21 04:15:12;;;;;;;;;;;6.20;99.90;;;;;;5096328;28;20270;-72
2021/12/21 04:17:38;;;;;;;;;;;6.20;99.90;;;;;;5090685;28;19912;-71
2021/12/21 04:20:04;;;;;;;;;;;6.20;99.90;;;;;;5091416;27;20510;-73
2021/12/21 04:22:29;;;;;;;;;;;6.20;99.90;;;;;;5100612;28;19926;-73
2021/12/21 04:24:55;;;;;;;;;;;6.30;99.90;;;;;;5092921;28;20427;-74
2021/12/21 04:27:21;;;;;;;;;;;6.20;99.90;;;;;;5096814;28;20010;-74
2021/12/21 04:29:47;;;;;;;;;;;6.20;99.90;;;;;;5102941;28;19931;-74
2021/12/21 04:32:12;;;;;;;;;;;6.20;99.90;;;;;;5094080;28;19908;-74
2021/12/21 04:34:39;;;;;;;;;;;6.20;99.90;;;;;;5096234;28;20327;-72
2021/12/21 04:37:05;;;;;;;;;;;6.30;99.90;;;;;;5095447;28;19908;-74
2021/12/21 04:42:02;;;;;;;;;;;6.30;99.90;;;;;;5100160;28;19926;-74
2021/12/21 04:44:27;;;;;;;;;;;6.30;99.90;;;;;;5100427;28;19916;-72
2021/12/21 04:46:53;;;;;;;;;;;6.20;99.90;;;;;;5094427;28;19915;-75
2021/12/21 04:49:18;;;;;;;;;;;6.20;99.90;;;;;;5095764;28;19970;-75
2021/12/21 04:51:44;;;;;;;;;;;6.20;99.90;;;;;;5099394;28;19949;-73
2021/12/21 04:54:10;;;;;;;;;;;6.20;99.90;;;;;;5101368;28;19914;-75
2021/12/21 04:56:35;;;;;;;;;;;6.10;99.90;;;;;;5087683;28;19947;-74
2021/12/21 04:59:01;;;;;;;;;;;6.10;99.90;;;;;;5101157;28;19955;-74
2021/12/21 05:01:26;;;;;;;;;;;6.10;99.90;;;;;;5096941;28;19916;-73
2021/12/21 05:03:52;;;;;;;;;;;6.10;99.90;;;;;;5095699;28;20369;-75
2021/12/21 05:06:19;;;;;;;;;;;6.10;99.90;;;;;;5098399;28;19916;-74
2021/12/21 05:08:52;;;;;;;;;;;6.10;99.90;;;;;;5101231;28;19908;-72
2021/12/21 05:11:19;;;;;;;;;;;6.10;99.90;;;;;;5094590;28;19911;-75
2021/12/21 05:13:45;;;;;;;;;;;6.10;99.90;;;;;;5097138;28;19915;-72
2021/12/21 05:16:10;;;;;;;;;;;6.10;99.90;;;;;;5089794;28;19909;-73
2021/12/21 05:18:36;;;;;;;;;;;6.10;99.90;;;;;;5105748;28;19903;-74
2021/12/21 05:21:02;;;;;;;;;;;6.20;99.90;;;;;;5100753;28;19908;-72
2021/12/21 05:23:28;;;;;;;;;;;6.10;99.90;;;;;;5100845;28;19998;-74
2021/12/21 05:25:54;;;;;;;;;;;6.10;99.90;;;;;;5100888;28;20010;-75
2021/12/21 05:28:19;;;;;;;;;;;6.10;99.90;;;;;;5098169;28;20302;-75
2021/12/21 05:30:45;;;;;;;;;;;6.10;99.90;;;;;;5101120;28;19912;-75
2021/12/21 05:33:11;;;;;;;;;;;6.00;99.90;;;;;;5097610;28;20392;-75
2021/12/21 05:35:37;;;;;;;;;;;6.00;99.90;;;;;;5094094;28;20019;-73
2021/12/21 05:38:05;;;;;;;;;;;6.00;99.90;;;;;;5083258;28;19908;-74
2021/12/21 05:40:40;;;;;;;;;;;6.00;99.90;;;;;;5093420;28;20289;-75
2021/12/21 05:43:07;;;;;;;;;;;6.10;99.90;;;;;;5091018;28;20350;-74
2021/12/21 05:45:39;;;;;;;;;;;6.10;99.90;;;;;;5082572;28;20357;-77
2021/12/21 05:48:05;;;;;;;;;;;6.10;99.90;;;;;;5095379;28;19908;-73
2021/12/21 05:50:31;;;;;;;;;;;6.10;99.90;;;;;;5084060;28;20277;-72
2021/12/21 05:52:57;;;;;;;;;;;6.10;99.90;;;;;;5091701;28;19919;-72
2021/12/21 05:55:23;;;;;;;;;;;6.10;99.90;;;;;;5073770;28;19908;-74
2021/12/21 05:57:48;;;;;;;;;;;6.10;99.90;;;;;;5092658;28;19935;-76
2021/12/21 06:00:16;;;;;;;;;;;6.10;99.90;;;;;;5091531;28;20065;-74
2021/12/21 06:02:42;;;;;;;;;;;6.20;99.90;;;;;;5092093;28;19915;-73
2021/12/21 06:05:07;;;;;;;;;;;6.20;99.90;;;;;;5091845;28;19903;-75
2021/12/21 06:07:33;;;;;;;;;;;6.20;99.90;;;;;;5091007;28;20012;-73
2021/12/21 06:10:08;;;;;;;;;;;6.10;99.90;;;;;;5075968;28;19915;-74
2021/12/21 06:15:39;;;;;;;;;;;6.20;99.90;;;;;;5084345;28;19914;-74
2021/12/21 06:26:00;;;;;;;;;;;6.10;99.90;;;;;;5091100;28;20281;-74
2021/12/21 06:28:26;;;;;;;;;;;6.20;99.90;;;;;;5091089;28;19904;-74
2021/12/21 06:30:51;;;;;;;;;;;6.20;99.90;;;;;;5091177;28;19904;-74
2021/12/21 06:33:17;;;;;;;;;;;6.20;99.90;;;;;;5091046;28;19914;-74
2021/12/21 06:35:43;;;;;;;;;;;6.20;99.90;;;;;;5091372;28;20006;-74
2021/12/21 06:38:10;;;;;;;;;;;6.10;99.90;;;;;;5089697;28;19908;-76
2021/12/21 06:40:36;;;;;;;;;;;6.10;99.90;;;;;;5076876;28;19908;-73
2021/12/21 06:43:02;;;;;;;;;;;6.10;99.90;;;;;;5070549;28;19953;-74
2021/12/21 06:45:45;;;;;;;;;;;6.10;99.90;;;;;;5069749;28;20305;-74
2021/12/21 06:51:58;;;;;;;;;;;6.10;99.90;;;;;;5080371;28;19915;-76
2021/12/21 06:53:53;;;;;;;;;;;6.10;99.90;;;;;;5091030;28;19950;-74
2021/12/21 06:56:19;;;;;;;;;;;6.10;99.90;;;;;;5091979;28;19914;-73
2021/12/21 06:58:45;;;;;;;;;;;6.10;99.90;;;;;;5072256;28;19915;-73
2021/12/21 07:01:10;;;;;;;;;;;6.10;99.90;;;;;;5070833;28;19912;-72
2021/12/21 07:03:36;;;;;;;;;;;6.10;99.90;;;;;;5073084;28;19958;-75
2021/12/21 07:06:03;;;;;;;;;;;6.10;99.90;;;;;;5072497;28;19909;-74
2021/12/21 07:08:32;;;;;;;;;;;6.10;99.90;;;;;;5071142;28;19949;-71
2021/12/21 07:11:14;;;;;;;;;;;6.00;99.90;;;;;;5070812;28;19904;-74
2021/12/21 07:19:09;;;;;;;;;;;6.00;99.90;;;;;;5071268;28;19915;-73
2021/12/21 07:21:35;;;;;;;;;;;6.00;99.90;;;;;;5084873;28;19908;-73
2021/12/21 07:24:01;;;;;;;;;;;6.00;99.90;;;;;;5090464;28;20302;-73
2021/12/21 07:26:26;;;;;;;;;;;6.00;99.90;;;;;;5092243;28;19912;-74
2021/12/21 07:28:52;;;;;;;;;;;6.10;99.90;;;;;;5094675;28;19904;-74
2021/12/21 07:31:18;;;;;;;;;;;6.30;99.90;;;;;;5090959;28;19947;-75
2021/12/21 07:33:43;;;;;;;;;;;6.30;99.90;;;;;;5090763;28;20205;-74
2021/12/21 07:36:09;;;;;;;;;;;6.30;99.90;;;;;;5081035;28;20062;-75
2021/12/21 07:38:35;;;;;;;;;;;6.30;99.90;;;;;;5090675;28;19985;-74
2021/12/21 07:41:01;;;;;;;;;;;6.40;99.90;;;;;;5091113;28;19904;-75
2021/12/21 07:43:26;;;;;;;;;;;6.50;99.90;;;;;;5081232;28;20274;-74
2021/12/21 07:45:52;;;;;;;;;;;6.50;99.90;;;;;;5069848;28;20011;-74
2021/12/21 07:48:18;;;;;;;;;;;6.50;99.90;;;;;;5084408;28;20012;-76
2021/12/21 07:50:45;;;;;;;;;;;6.60;99.90;;;;;;5081152;28;19912;-74
2021/12/21 07:53:11;;;;;;;;;;;6.70;99.90;;;;;;5078392;28;19950;-74
2021/12/21 07:55:36;;;;;;;;;;;6.70;99.90;;;;;;5093065;28;19961;-74
2021/12/21 07:58:02;;;;;;;;;;;6.50;99.90;;;;;;5070360;28;20359;-76
2021/12/21 08:00:27;;;;;;;;;;;6.50;99.90;;;;;;5069795;28;19916;-74
2021/12/21 08:02:54;;;;;;;;;;;6.50;99.90;;;;;;5070389;28;20366;-74
2021/12/21 08:05:20;;;;;;;;;;;6.60;99.90;;;;;;5070975;28;20281;-66
2021/12/21 08:07:52;;;;;;;;;;;6.60;99.90;;;;;;5078051;28;19999;-66
2021/12/21 08:10:29;;;;;;;;;;;6.60;99.90;;;;;;5089453;28;19915;-66
2021/12/21 08:12:56;;;;;;;;;;;6.60;99.90;;;;;;5085734;28;20050;-67
2021/12/21 08:15:23;;;;;;;;;;;6.70;99.90;;;;;;5073769;28;19915;-65
2021/12/21 08:17:49;;;;;;;;;;;6.60;99.90;;;;;;5093447;28;19953;-67
2021/12/21 08:20:14;;;;;;;;;;;6.70;99.90;;;;;;5093259;28;19904;-66
2021/12/21 08:22:40;;;;;;;;;;;6.70;99.90;;;;;;5093871;28;19923;-65
2021/12/21 08:25:06;;;;;;;;;;;6.70;99.90;;;;;;5085309;28;19909;-67
2021/12/21 08:27:32;;;;;;;;;;;6.70;99.90;;;;;;5075396;28;19965;-66
2021/12/21 08:29:58;;;;;;;;;;;6.70;99.90;;;;;;5073606;28;20447;-66
2021/12/21 08:32:23;;;;;;;;;;;6.70;99.90;;;;;;5073615;28;19953;-65
2021/12/21 08:34:49;;;;;;;;;;;6.70;99.90;;;;;;5073468;28;19912;-67
2021/12/21 08:37:14;;;;;;;;;;;6.80;99.90;;;;;;5080268;28;19908;-67
2021/12/21 08:39:40;;;;;;;;;;;6.80;99.90;;;;;;5099440;28;20375;-65
2021/12/21 08:42:08;;;;;;;;;;;6.90;99.90;;;;;;5091234;28;19915;-65
2021/12/21 08:44:33;;;;;;;;;;;7.00;99.90;;;;;;5093412;28;19912;-66
2021/12/21 08:46:59;;;;;;;;;;;6.90;99.90;;;;;;5073957;28;19985;-66
2021/12/21 08:49:25;;;;;;;;;;;6.80;99.90;;;;;;5073771;28;20350;-66
2021/12/21 08:51:51;;;;;;;;;;;6.70;99.90;;;;;;5073906;28;19927;-66
2021/12/21 08:54:17;;;;;;;;;;;6.60;99.90;;;;;;5076834;28;19916;-66
2021/12/21 08:56:44;;;;;;;;;;;6.60;99.90;;;;;;5081007;28;19908;-65
2021/12/21 08:59:10;;;;;;;;;;;6.70;99.90;;;;;;5076591;28;19943;-66
2021/12/21 09:01:36;;;;;;;;;;;6.70;99.90;;;;;;5087250;28;19919;-65
2021/12/21 09:04:02;;;;;;;;;;;6.70;99.90;;;;;;5088286;28;19926;-67
2021/12/21 09:06:28;;;;;;;;;;;6.70;99.90;;;;;;5100911;28;20018;-67
2021/12/21 09:08:53;;;;;;;;;;;6.80;99.90;;;;;;5096281;28;19966;-67
2021/12/21 09:11:19;;;;;;;;;;;6.90;99.90;;;;;;5078629;28;19936;-68
2021/12/21 09:13:44;;;;;;;;;;;6.90;99.90;;;;;;5079770;28;19920;-68
2021/12/21 09:16:10;;;;;;;;;;;6.90;99.90;;;;;;5104523;28;19998;-68
2021/12/21 09:18:36;;;;;;;;;;;6.80;99.90;;;;;;5093483;28;19927;-67
2021/12/21 09:21:01;;;;;;;;;;;6.80;99.90;;;;;;5092966;28;19904;-67
2021/12/21 09:23:28;;;;;;;;;;;6.90;99.90;;;;;;5092680;28;19904;-67
2021/12/21 09:25:54;;;;;;;;;;;7.00;99.90;;;;;;5092737;28;19918;-67
2021/12/21 09:28:19;;;;;;;;;;;7.10;99.90;;;;;;5092676;28;20380;-68
2021/12/21 09:30:46;;;;;;;;;;;7.10;99.90;;;;;;5090441;28;20377;-67
2021/12/21 09:33:12;;;;;;;;;;;7.10;99.90;;;;;;5078262;28;19905;-67
2021/12/21 09:35:37;;;;;;;;;;;7.20;99.90;;;;;;5071684;28;20007;-67
2021/12/21 09:38:03;;;;;;;;;;;7.20;99.90;;;;;;5071768;28;19995;-67
2021/12/21 09:40:29;;;;;;;;;;;7.30;99.90;;;;;;5071423;28;20412;-67
2021/12/21 09:42:55;;;;;;;;;;;7.30;99.90;;;;;;5076212;28;20282;-67
2021/12/21 09:45:21;;;;;;;;;;;7.30;99.90;;;;;;5094837;28;19916;-67
2021/12/21 09:47:49;;;;;;;;;;;7.40;99.90;;;;;;5085167;28;20358;-66
2021/12/21 09:50:16;;;;;;;;;;;7.30;99.90;;;;;;5100522;28;20310;-68
2021/12/21 09:52:42;;;;;;;;;;;7.30;99.90;;;;;;5107007;28;20342;-68
2021/12/21 09:55:10;;;;;;;;;;;7.40;99.90;;;;;;5090700;28;19985;-68
2021/12/21 09:57:35;;;;;;;;;;;7.40;99.90;;;;;;5094595;28;19995;-68
2021/12/21 10:00:04;;;;;;;;;;;7.40;99.90;;;;;;5102050;28;19951;-67
2021/12/21 10:02:33;;;;;;;;;;;7.40;99.90;;;;;;5097525;28;19908;-67
2021/12/21 10:04:59;;;;;;;;;;;7.30;99.90;;;;;;5095161;28;19908;-67
2021/12/21 10:07:26;;;;;;;;;;;7.20;99.90;;;;;;5098163;28;19934;-67
2021/12/21 10:10:01;;;;;;;;;;;7.40;99.90;;;;;;5097901;28;20290;-67
2021/12/21 10:12:38;;;;;;;;;;;7.40;99.90;;;;;;5096907;28;20330;-67
2021/12/21 10:15:10;;;;;;;;;;;7.50;99.90;;;;;;5096527;28;19995;-67
2021/12/21 10:17:36;;;;;;;;;;;7.50;99.90;;;;;;5094015;28;19907;-68
2021/12/21 10:20:06;;;;;;;;;;;7.60;99.90;;;;;;5094815;28;19982;-67
2021/12/21 10:22:32;;;;;;;;;;;7.70;99.90;;;;;;5094523;28;19916;-68
2021/12/21 10:24:58;;;;;;;;;;;7.60;99.90;;;;;;5096978;28;20039;-68
2021/12/21 10:27:25;;;;;;;;;;;7.50;99.90;;;;;;5064565;28;19923;-68
2021/12/21 10:29:52;;;;;;;;;;;7.50;99.90;;;;;;5095309;28;20317;-67
2021/12/21 10:32:19;;;;;;;;;;;7.60;99.90;;;;;;5092017;28;19956;-67
2021/12/21 10:34:51;;;;;;;;;;;7.70;99.90;;;;;;5100016;28;19957;-68
2021/12/21 10:37:22;;;;;;;;;;;7.80;99.90;;;;;;5098728;28;19908;-68
2021/12/21 10:39:48;;;;;;;;;;;7.80;99.90;;;;;;5100844;28;19904;-68
2021/12/21 10:42:14;;;;;;;;;;;7.60;99.90;;;;;;5092887;28;19908;-70
2021/12/21 10:44:44;;;;;;;;;;;7.50;99.90;;;;;;5109496;28;19904;-68
2021/12/21 10:47:11;;;;;;;;;;;7.60;99.90;;;;;;5092673;28;19922;-69
2021/12/21 10:49:39;;;;;;;;;;;7.60;99.90;;;;;;5101507;28;19912;-68
2021/12/21 10:52:07;;;;;;;;;;;7.60;99.90;;;;;;5101273;28;19908;-67
2021/12/21 10:54:41;;;;;;;;;;;7.50;99.90;;;;;;5090255;28;19933;-67
2021/12/21 10:57:10;;;;;;;;;;;7.60;99.90;;;;;;5086385;28;20334;-68
2021/12/21 10:59:37;;;;;;;;;;;7.70;99.90;;;;;;5080128;28;19912;-68
2021/12/21 11:02:05;;;;;;;;;;;7.90;99.90;;;;;;5080474;28;19947;-68
2021/12/21 11:04:36;;;;;;;;;;;8.10;99.90;;;;;;5078873;28;20377;-68
2021/12/21 11:10:15;;;;;;;;;;;8.50;99.90;;;;;;5079392;28;19916;-69
2021/12/21 11:12:41;;;;;;;;;;;8.50;99.90;;;;;;5079423;28;19912;-69
2021/12/21 11:15:09;;;;;;;;;;;8.30;99.90;;;;;;5080903;28;19908;-68
2021/12/21 11:17:34;;;;;;;;;;;8.10;99.90;;;;;;5088177;28;19912;-68
2021/12/21 11:20:00;;;;;;;;;;;8.00;99.90;;;;;;5078257;28;20340;-68
2021/12/21 11:22:28;;;;;;;;;;;7.90;99.90;;;;;;5090910;28;19920;-70
2021/12/21 11:24:54;;;;;;;;;;;7.80;99.90;;;;;;5082982;28;19961;-67
2021/12/21 11:27:23;;;;;;;;;;;7.70;99.90;;;;;;5081451;28;19923;-68
2021/12/21 11:29:50;;;;;;;;;;;7.70;99.90;;;;;;5090179;28;20369;-68
2021/12/21 11:32:16;;;;;;;;;;;7.90;99.90;;;;;;5094443;28;19908;-69
2021/12/21 11:35:08;;;;;;;;;;;8.00;99.90;;;;;;5100617;28;19907;-69
2021/12/21 11:37:29;;;;;;;;;;;8.10;99.90;;;;;;5099698;28;20395;-69
2021/12/21 11:39:55;;;;;;;;;;;8.20;99.90;;;;;;5096927;28;20358;-68
2021/12/21 11:42:50;;;;;;;;;;;8.30;99.90;;;;;;5098029;28;19931;-68
2021/12/21 11:45:21;;;;;;;;;;;8.40;99.90;;;;;;5061126;28;20362;-69
2021/12/21 11:47:49;;;;;;;;;;;8.50;99.90;;;;;;5096639;28;19912;-68
2021/12/21 11:50:15;;;;;;;;;;;8.60;99.90;;;;;;5097610;28;19998;-68
2021/12/21 11:52:51;;;;;;;;;;;8.70;99.90;;;;;;5099875;28;20007;-67
2021/12/21 11:55:17;;;;;;;;;;;8.50;99.90;;;;;;5097233;28;20010;-71
2021/12/21 11:57:55;;;;;;;;;;;8.30;99.90;;;;;;5094698;28;19981;-69
2021/12/21 12:00:20;;;;;;;;;;;8.10;99.90;;;;;;5095441;28;20003;-69
2021/12/21 12:02:47;;;;;;;;;;;8.10;99.90;;;;;;5097716;28;19995;-69
2021/12/21 12:05:14;;;;;;;;;;;7.90;99.90;;;;;;5094525;28;19916;-68
2021/12/21 12:07:40;;;;;;;;;;;7.70;99.90;;;;;;5100444;28;20369;-68
2021/12/21 12:10:10;;;;;;;;;;;7.70;99.90;;;;;;5100295;28;19914;-67
2021/12/21 12:12:36;;;;;;;;;;;7.60;99.90;;;;;;5093835;28;19908;-68
2021/12/21 12:15:03;;;;;;;;;;;7.10;99.90;;;;;;5090336;28;19912;-66
2021/12/21 12:17:30;;;;;;;;;;;6.80;99.90;;;;;;5086750;28;20356;-66
2021/12/21 12:20:00;;;;;;;;;;;6.70;99.90;;;;;;5097527;28;19908;-70
2021/12/21 12:22:36;;;;;;;;;;;6.60;99.90;;;;;;5100818;28;19990;-67
2021/12/21 12:25:03;;;;;;;;;;;6.60;99.90;;;;;;5090460;28;19911;-68
2021/12/21 12:27:29;;;;;;;;;;;6.50;99.90;;;;;;5079533;28;19920;-70
2021/12/21 12:29:57;;;;;;;;;;;6.40;99.90;;;;;;5099538;28;19961;-67
2021/12/21 12:32:36;;;;;;;;;;;6.60;99.90;;;;;;5101459;28;19908;-66
2021/12/21 12:35:12;;;;;;;;;;;6.60;99.90;;;;;;5101235;28;20296;-68
2021/12/21 12:37:58;;;;;;;;;;;6.40;99.90;;;;;;5098340;28;19912;-67
2021/12/21 12:40:25;;;;;;;;;;;6.20;99.90;;;;;;5101643;28;19915;-68
2021/12/21 12:42:55;;;;;;;;;;;6.00;99.90;;;;;;5099755;28;19965;-67
2021/12/21 12:45:22;;;;;;;;;;;6.00;99.90;;;;;;5104701;28;19956;-68
2021/12/21 12:47:49;;;;;;;;;;;6.00;99.90;;;;;;5096407;28;20401;-67
2021/12/21 12:50:16;;;;;;;;;;;6.10;99.90;;;;;;5103098;28;19914;-67
2021/12/21 12:52:56;;;;;;;;;;;6.10;99.90;;;;;;5099192;28;19915;-68
2021/12/21 12:55:23;;;;;;;;;;;6.10;99.90;;;;;;5096967;28;20007;-68
2021/12/21 12:57:51;;;;;;;;;;;5.90;99.90;;;;;;5099722;28;19916;-67
2021/12/21 13:00:25;;;;;;;;;;;5.80;99.90;;;;;;5100384;28;19977;-67
2021/12/21 13:03:00;;;;;;;;;;;5.80;99.90;;;;;;5095725;28;19922;-68
2021/12/21 13:05:27;;;;;;;;;;;5.70;99.90;;;;;;5096597;28;19918;-68
2021/12/21 13:07:52;;;;;;;;;;;5.60;99.90;;;;;;5104785;28;19926;-67
2021/12/21 13:10:21;;;;;;;;;;;5.70;99.90;;;;;;5099091;28;19912;-67
2021/12/21 13:12:54;;;;;;;;;;;5.70;99.90;;;;;;5095028;28;20396;-67
2021/12/21 13:15:30;;;;;;;;;;;5.80;99.90;;;;;;5091280;28;20378;-66
2021/12/21 13:18:04;;;;;;;;;;;5.80;99.90;;;;;;5077017;28;19908;-66
2021/12/21 13:20:30;;;;;;;;;;;5.80;99.90;;;;;;5088144;28;19931;-66
2021/12/21 13:22:56;;;;;;;;;;;5.70;99.90;;;;;;5096454;28;20396;-67
2021/12/21 13:25:21;;;;;;;;;;;5.50;99.90;;;;;;5099745;28;19908;-67
2021/12/21 13:27:47;;;;;;;;;;;5.40;99.90;;;;;;5097855;28;19922;-68
2021/12/21 13:30:17;;;;;;;;;;;5.30;99.90;;;;;;5101026;28;20370;-65
2021/12/21 13:32:42;;;;;;;;;;;5.30;99.90;;;;;;5087394;28;20412;-66
2021/12/21 13:35:08;;;;;;;;;;;5.40;99.90;;;;;;5098471;28;19916;-69
2021/12/21 13:37:34;;;;;;;;;;;5.50;99.90;;;;;;5093775;28;19953;-66
2021/12/21 13:40:02;;;;;;;;;;;5.70;99.90;;;;;;5104146;28;19908;-68
2021/12/21 13:42:28;;;;;;;;;;;5.60;99.90;;;;;;5094540;28;19914;-66
2021/12/21 13:44:55;;;;;;;;;;;5.70;99.90;;;;;;5102930;28;20038;-68
2021/12/21 13:47:22;;;;;;;;;;;5.60;99.90;;;;;;5097399;28;20044;-66
2021/12/21 13:49:57;;;;;;;;;;;5.60;99.90;;;;;;5099814;28;20072;-68
2021/12/21 13:52:23;;;;;;;;;;;5.70;99.90;;;;;;5091529;28;20009;-66
2021/12/21 13:54:49;;;;;;;;;;;5.60;99.90;;;;;;5099364;28;20006;-66
2021/12/21 13:57:18;;;;;;;;;;;5.50;99.90;;;;;;5094809;28;20002;-67
2021/12/21 13:59:51;;;;;;;;;;;5.50;99.90;;;;;;5090268;28;20415;-67
2021/12/21 14:02:25;;;;;;;;;;;5.60;99.90;;;;;;5092216;28;19908;-67
2021/12/21 14:05:00;;;;;;;;;;;5.60;99.90;;;;;;5094435;28;19914;-67
2021/12/21 14:07:26;;;;;;;;;;;5.60;99.90;;;;;;5093553;28;19938;-66
2021/12/21 14:10:03;;;;;;;;;;;5.60;99.90;;;;;;5093162;28;19962;-68
2021/12/21 14:12:29;;;;;;;;;;;5.60;99.90;;;;;;5090903;28;19928;-72
2021/12/21 14:14:55;;;;;;;;;;;5.60;99.90;;;;;;5095757;28;20364;-67
2021/12/21 14:17:25;;;;;;;;;;;5.50;99.90;;;;;;5078043;28;19919;-66
2021/12/21 14:19:54;;;;;;;;;;;5.40;99.90;;;;;;5078350;28;19908;-67
2021/12/21 14:22:20;;;;;;;;;;;5.50;99.90;;;;;;5093070;28;19908;-66
2021/12/21 14:24:48;;;;;;;;;;;5.40;99.90;;;;;;5093435;28;19916;-67
2021/12/21 14:27:14;;;;;;;;;;;5.40;99.90;;;;;;5094531;28;19912;-67
2021/12/21 14:29:42;;;;;;;;;;;5.30;99.90;;;;;;5096284;28;19934;-67
2021/12/21 14:34:54;;;;;;;;;;;5.30;99.90;;;;;;5098789;28;19973;-66
2021/12/21 14:37:21;;;;;;;;;;;5.40;99.90;;;;;;5092257;28;20382;-67
2021/12/21 14:39:52;;;;;;;;;;;5.40;99.90;;;;;;5094756;28;20117;-66
2021/12/21 14:42:20;;;;;;;;;;;5.40;99.90;;;;;;5094243;28;19908;-66
2021/12/21 14:44:45;;;;;;;;;;;5.40;99.90;;;;;;5086593;28;20324;-66
2021/12/21 14:47:13;;;;;;;;;;;5.40;99.90;;;;;;5098331;28;19969;-66
2021/12/21 14:49:41;;;;;;;;;;;5.40;99.90;;;;;;5096073;28;19912;-66
2021/12/21 14:52:26;;;;;;;;;;;5.30;99.90;;;;;;5098830;28;19960;-66
2021/12/21 14:54:58;;;;;;;;;;;5.40;99.90;;;;;;5099779;28;19954;-66
2021/12/21 14:57:30;;;;;;;;;;;5.40;99.90;;;;;;5101690;28;20366;-67
2021/12/21 14:59:56;;;;;;;;;;;5.50;99.90;;;;;;5103117;28;19912;-66
2021/12/21 15:04:57;;;;;;;;;;;5.80;99.90;;;;;;5095418;28;19908;-66
2021/12/21 15:07:23;;;;;;;;;;;5.80;99.90;;;;;;5087972;28;19912;-67
2021/12/21 15:09:49;;;;;;;;;;;5.90;99.90;;;;;;5092911;28;20006;-66
2021/12/21 15:12:16;;;;;;;;;;;5.90;99.90;;;;;;5103210;28;19904;-66
2021/12/21 15:14:42;;;;;;;;;;;5.80;99.90;;;;;;5091508;28;19923;-67
2021/12/21 15:17:08;;;;;;;;;;;5.80;99.90;;;;;;5101712;28;19923;-66
2021/12/21 15:19:33;;;;;;;;;;;5.70;99.90;;;;;;5102191;28;19926;-67
2021/12/21 15:21:59;;;;;;;;;;;5.70;99.90;;;;;;5086390;28;19949;-66
2021/12/21 15:24:24;;;;;;;;;;;5.80;99.90;;;;;;5101529;28;19915;-66
2021/12/21 15:26:50;;;;;;;;;;;5.80;99.90;;;;;;5098416;28;19957;-66